sensor_id;sensor_type;location;lat;lon;timestamp;pressure;altitude;pressure_sealevel;temperature;humidity
34374;BME280;20637;55.770;37.592;2023-05-14T00:00:33;100290.00;;;14.53;46.39
34374;BME280;20637;55.770;37.592;2023-05-14T00:02:59;100295.78;;;14.50;45.84
34374;BME280;20637;55.770;37.592;2023-05-14T00:05:25;100292.56;;;14.46;45.78
34374;BME280;20637;55.770;37.592;2023-05-14T00:07:50;100301.75;;;14.45;46.22
34374;BME280;20637;55.770;37.592;2023-05-14T00:10:16;100293.09;;;14.42;46.30
34374;BME280;20637;55.770;37.592;2023-05-14T00:12:43;100293.63;;;14.37;46.58
34374;BME280;20637;55.770;37.592;2023-05-14T00:15:08;100298.25;;;14.28;47.46
34374;BME280;20637;55.770;37.592;2023-05-14T00:17:34;100305.03;;;14.24;47.85
34374;BME280;20637;55.770;37.592;2023-05-14T00:19:59;100296.56;;;14.19;47.35
34374;BME280;20637;55.770;37.592;2023-05-14T00:22:25;100294.38;;;14.15;47.39
34374;BME280;20637;55.770;37.592;2023-05-14T00:24:50;100293.22;;;14.09;47.65
34374;BME280;20637;55.770;37.592;2023-05-14T00:27:16;100298.97;;;14.06;48.27
34374;BME280;20637;55.770;37.592;2023-05-14T00:29:41;100302.03;;;14.03;48.23
34374;BME280;20637;55.770;37.592;2023-05-14T00:32:07;100293.41;;;14.00;47.91
34374;BME280;20637;55.770;37.592;2023-05-14T00:34:32;100294.25;;;14.00;48.32
34374;BME280;20637;55.770;37.592;2023-05-14T00:36:57;100299.00;;;13.98;48.01
34374;BME280;20637;55.770;37.592;2023-05-14T00:39:23;100301.91;;;13.97;48.22
34374;BME280;20637;55.770;37.592;2023-05-14T00:41:48;100298.84;;;13.92;48.68
34374;BME280;20637;55.770;37.592;2023-05-14T00:44:14;100306.84;;;13.85;48.84
34374;BME280;20637;55.770;37.592;2023-05-14T00:46:39;100297.84;;;13.84;49.02
34374;BME280;20637;55.770;37.592;2023-05-14T00:49:05;100306.72;;;13.78;48.94
34374;BME280;20637;55.770;37.592;2023-05-14T00:51:30;100307.22;;;13.74;49.43
34374;BME280;20637;55.770;37.592;2023-05-14T00:53:56;100304.00;;;13.70;49.03
34374;BME280;20637;55.770;37.592;2023-05-14T00:56:21;100309.75;;;13.67;49.10
34374;BME280;20637;55.770;37.592;2023-05-14T00:58:47;100315.53;;;13.64;49.37
34374;BME280;20637;55.770;37.592;2023-05-14T01:01:13;100307.91;;;13.60;49.68
34374;BME280;20637;55.770;37.592;2023-05-14T01:03:39;100310.09;;;13.56;49.81
34374;BME280;20637;55.770;37.592;2023-05-14T01:08:51;100306.53;;;13.48;49.48
34374;BME280;20637;55.770;37.592;2023-05-14T01:11:19;100315.72;;;13.47;49.39
34374;BME280;20637;55.770;37.592;2023-05-14T01:14:02;100316.88;;;13.44;50.32
34374;BME280;20637;55.770;37.592;2023-05-14T01:16:31;100313.66;;;13.41;50.49
34374;BME280;20637;55.770;37.592;2023-05-14T01:18:57;100315.88;;;13.37;50.06
34374;BME280;20637;55.770;37.592;2023-05-14T01:23:59;100327.41;;;13.31;50.51
34374;BME280;20637;55.770;37.592;2023-05-14T01:26:24;100322.66;;;13.33;50.23
34374;BME280;20637;55.770;37.592;2023-05-14T01:28:50;100320.28;;;13.30;49.45
34374;BME280;20637;55.770;37.592;2023-05-14T01:31:17;100309.78;;;13.27;50.36
34374;BME280;20637;55.770;37.592;2023-05-14T01:33:44;100318.28;;;13.24;49.82
34374;BME280;20637;55.770;37.592;2023-05-14T01:36:12;100323.50;;;13.25;49.77
34374;BME280;20637;55.770;37.592;2023-05-14T01:38:38;100327.91;;;13.26;49.74
34374;BME280;20637;55.770;37.592;2023-05-14T01:41:04;100319.78;;;13.26;50.49
34374;BME280;20637;55.770;37.592;2023-05-14T01:43:29;100323.00;;;13.22;50.52
34374;BME280;20637;55.770;37.592;2023-05-14T01:45:55;100334.03;;;13.20;50.70
34374;BME280;20637;55.770;37.592;2023-05-14T01:48:21;100338.91;;;13.17;50.73
34374;BME280;20637;55.770;37.592;2023-05-14T01:50:46;100342.31;;;13.11;51.25
34374;BME280;20637;55.770;37.592;2023-05-14T01:53:12;100339.53;;;13.03;51.04
34374;BME280;20637;55.770;37.592;2023-05-14T01:55:37;100348.00;;;13.00;51.27
34374;BME280;20637;55.770;37.592;2023-05-14T01:58:03;100341.88;;;12.98;51.65
34374;BME280;20637;55.770;37.592;2023-05-14T02:00:30;100337.66;;;12.95;50.93
34374;BME280;20637;55.770;37.592;2023-05-14T02:02:57;100340.56;;;12.94;51.08
34374;BME280;20637;55.770;37.592;2023-05-14T02:05:22;100342.72;;;12.90;51.25
34374;BME280;20637;55.770;37.592;2023-05-14T02:07:48;100345.97;;;12.85;51.62
34374;BME280;20637;55.770;37.592;2023-05-14T02:10:14;100350.00;;;12.81;52.23
34374;BME280;20637;55.770;37.592;2023-05-14T02:12:40;100344.22;;;12.76;51.90
34374;BME280;20637;55.770;37.592;2023-05-14T02:15:05;100348.63;;;12.77;51.71
34374;BME280;20637;55.770;37.592;2023-05-14T02:17:34;100354.56;;;12.81;51.63
34374;BME280;20637;55.770;37.592;2023-05-14T02:19:59;100356.44;;;12.80;51.93
34374;BME280;20637;55.770;37.592;2023-05-14T02:22:25;100356.91;;;12.76;52.53
34374;BME280;20637;55.770;37.592;2023-05-14T02:24:51;100356.75;;;12.69;52.27
34374;BME280;20637;55.770;37.592;2023-05-14T02:27:17;100355.38;;;12.65;51.99
34374;BME280;20637;55.770;37.592;2023-05-14T02:29:42;100363.97;;;12.61;52.41
34374;BME280;20637;55.770;37.592;2023-05-14T02:32:07;100356.34;;;12.56;53.06
34374;BME280;20637;55.770;37.592;2023-05-14T02:34:33;100358.03;;;12.57;52.76
34374;BME280;20637;55.770;37.592;2023-05-14T02:36:58;100365.69;;;12.62;53.11
34374;BME280;20637;55.770;37.592;2023-05-14T02:39:24;100363.13;;;12.60;53.23
34374;BME280;20637;55.770;37.592;2023-05-14T02:41:49;100373.97;;;12.60;52.58
34374;BME280;20637;55.770;37.592;2023-05-14T02:44:15;100371.09;;;12.62;52.24
34374;BME280;20637;55.770;37.592;2023-05-14T02:46:41;100378.03;;;12.64;52.41
34374;BME280;20637;55.770;37.592;2023-05-14T02:49:07;100380.59;;;12.66;52.29
34374;BME280;20637;55.770;37.592;2023-05-14T02:51:32;100380.94;;;12.71;52.24
34374;BME280;20637;55.770;37.592;2023-05-14T02:53:58;100377.56;;;12.69;52.09
34374;BME280;20637;55.770;37.592;2023-05-14T02:56:23;100381.63;;;12.73;52.17
34374;BME280;20637;55.770;37.592;2023-05-14T02:58:50;100376.88;;;12.75;52.67
34374;BME280;20637;55.770;37.592;2023-05-14T03:01:16;100382.00;;;12.78;52.61
34374;BME280;20637;55.770;37.592;2023-05-14T03:03:43;100378.25;;;12.79;52.23
34374;BME280;20637;55.770;37.592;2023-05-14T03:06:08;100380.47;;;12.83;52.27
34374;BME280;20637;55.770;37.592;2023-05-14T03:08:34;100374.72;;;12.86;52.41
34374;BME280;20637;55.770;37.592;2023-05-14T03:10:59;100371.88;;;12.88;52.29
34374;BME280;20637;55.770;37.592;2023-05-14T03:13:25;100383.72;;;12.95;51.88
34374;BME280;20637;55.770;37.592;2023-05-14T03:15:50;100373.06;;;13.02;51.72
34374;BME280;20637;55.770;37.592;2023-05-14T03:18:19;100376.28;;;13.05;51.56
34374;BME280;20637;55.770;37.592;2023-05-14T03:20:44;100387.53;;;13.10;51.88
34374;BME280;20637;55.770;37.592;2023-05-14T03:23:10;100383.31;;;13.16;51.70
34374;BME280;20637;55.770;37.592;2023-05-14T03:25:36;100396.88;;;13.16;51.70
34374;BME280;20637;55.770;37.592;2023-05-14T03:28:01;100391.97;;;13.19;51.37
34374;BME280;20637;55.770;37.592;2023-05-14T03:30:27;100401.13;;;13.26;51.60
34374;BME280;20637;55.770;37.592;2023-05-14T03:32:52;100405.19;;;13.30;51.80
34374;BME280;20637;55.770;37.592;2023-05-14T03:35:18;100400.28;;;13.34;51.96
34374;BME280;20637;55.770;37.592;2023-05-14T03:37:44;100397.56;;;13.34;51.87
34374;BME280;20637;55.770;37.592;2023-05-14T03:40:09;100400.63;;;13.39;51.54
34374;BME280;20637;55.770;37.592;2023-05-14T03:42:35;100407.22;;;13.45;51.80
34374;BME280;20637;55.770;37.592;2023-05-14T03:45:01;100401.31;;;13.41;51.84
34374;BME280;20637;55.770;37.592;2023-05-14T03:47:28;100403.84;;;13.43;52.02
34374;BME280;20637;55.770;37.592;2023-05-14T03:49:55;100412.00;;;13.43;51.76
34374;BME280;20637;55.770;37.592;2023-05-14T03:52:21;100409.28;;;13.43;52.16
34374;BME280;20637;55.770;37.592;2023-05-14T03:54:46;100413.16;;;13.40;51.45
34374;BME280;20637;55.770;37.592;2023-05-14T03:57:13;100407.41;;;13.43;51.51
34374;BME280;20637;55.770;37.592;2023-05-14T03:59:39;100409.94;;;13.45;51.86
34374;BME280;20637;55.770;37.592;2023-05-14T04:02:05;100411.31;;;13.49;51.07
34374;BME280;20637;55.770;37.592;2023-05-14T04:04:30;100404.53;;;13.53;51.00
34374;BME280;20637;55.770;37.592;2023-05-14T04:06:55;100404.38;;;13.54;51.66
34374;BME280;20637;55.770;37.592;2023-05-14T04:09:21;100419.47;;;13.57;51.75
34374;BME280;20637;55.770;37.592;2023-05-14T04:11:47;100411.66;;;13.62;50.89
34374;BME280;20637;55.770;37.592;2023-05-14T04:14:13;100415.56;;;13.67;50.81
34374;BME280;20637;55.770;37.592;2023-05-14T04:16:38;100407.25;;;13.77;51.13
34374;BME280;20637;55.770;37.592;2023-05-14T04:19:04;100415.25;;;13.78;50.37
34374;BME280;20637;55.770;37.592;2023-05-14T04:21:30;100402.34;;;13.80;50.23
34374;BME280;20637;55.770;37.592;2023-05-14T04:23:56;100411.84;;;13.93;50.59
34374;BME280;20637;55.770;37.592;2023-05-14T04:26:21;100413.84;;;14.07;50.51
34374;BME280;20637;55.770;37.592;2023-05-14T04:28:47;100419.78;;;14.10;50.84
34374;BME280;20637;55.770;37.592;2023-05-14T04:31:12;100415.88;;;14.13;50.01
34374;BME280;20637;55.770;37.592;2023-05-14T04:33:38;100415.19;;;14.11;50.50
34374;BME280;20637;55.770;37.592;2023-05-14T04:36:04;100419.63;;;14.12;49.91
34374;BME280;20637;55.770;37.592;2023-05-14T04:38:29;100422.84;;;14.15;50.46
34374;BME280;20637;55.770;37.592;2023-05-14T04:40:56;100416.06;;;14.11;50.36
34374;BME280;20637;55.770;37.592;2023-05-14T04:43:21;100423.19;;;14.12;49.90
34374;BME280;20637;55.770;37.592;2023-05-14T04:45:47;100416.22;;;14.10;50.07
34374;BME280;20637;55.770;37.592;2023-05-14T04:48:12;100423.00;;;14.14;49.78
34374;BME280;20637;55.770;37.592;2023-05-14T04:50:38;100420.47;;;14.20;49.99
34374;BME280;20637;55.770;37.592;2023-05-14T04:53:03;100420.75;;;14.25;49.97
34374;BME280;20637;55.770;37.592;2023-05-14T04:55:28;100421.59;;;14.34;49.50
34374;BME280;20637;55.770;37.592;2023-05-14T04:57:54;100429.09;;;14.40;49.56
34374;BME280;20637;55.770;37.592;2023-05-14T05:00:19;100431.47;;;14.43;49.87
34374;BME280;20637;55.770;37.592;2023-05-14T05:02:46;100422.13;;;14.46;49.59
34374;BME280;20637;55.770;37.592;2023-05-14T05:05:11;100421.94;;;14.47;49.30
34374;BME280;20637;55.770;37.592;2023-05-14T05:07:37;100416.66;;;14.54;49.32
34374;BME280;20637;55.770;37.592;2023-05-14T05:10:02;100423.09;;;14.61;49.32
34374;BME280;20637;55.770;37.592;2023-05-14T05:12:28;100429.88;;;14.65;48.80
34374;BME280;20637;55.770;37.592;2023-05-14T05:14:55;100424.25;;;14.66;48.98
34374;BME280;20637;55.770;37.592;2023-05-14T05:17:20;100423.38;;;14.74;49.18
34374;BME280;20637;55.770;37.592;2023-05-14T05:19:46;100422.50;;;14.82;48.53
34374;BME280;20637;55.770;37.592;2023-05-14T05:22:12;100429.28;;;14.86;48.80
34374;BME280;20637;55.770;37.592;2023-05-14T05:24:37;100418.91;;;14.89;48.44
34374;BME280;20637;55.770;37.592;2023-05-14T05:27:03;100422.75;;;14.95;48.56
34374;BME280;20637;55.770;37.592;2023-05-14T05:29:29;100421.38;;;14.99;48.81
34374;BME280;20637;55.770;37.592;2023-05-14T05:31:55;100421.06;;;15.02;48.40
34374;BME280;20637;55.770;37.592;2023-05-14T05:34:20;100417.63;;;15.08;48.44
34374;BME280;20637;55.770;37.592;2023-05-14T05:36:46;100422.31;;;15.14;48.45
34374;BME280;20637;55.770;37.592;2023-05-14T05:39:11;100413.00;;;15.16;48.28
34374;BME280;20637;55.770;37.592;2023-05-14T05:41:37;100409.75;;;15.21;48.06
34374;BME280;20637;55.770;37.592;2023-05-14T05:44:02;100408.41;;;15.17;48.32
34374;BME280;20637;55.770;37.592;2023-05-14T05:46:28;100423.00;;;15.16;48.06
34374;BME280;20637;55.770;37.592;2023-05-14T05:48:53;100404.81;;;15.16;47.87
34374;BME280;20637;55.770;37.592;2023-05-14T05:51:19;100397.53;;;15.17;48.04
34374;BME280;20637;55.770;37.592;2023-05-14T05:53:44;100389.66;;;15.22;48.08
34374;BME280;20637;55.770;37.592;2023-05-14T05:56:10;100395.25;;;15.29;47.89
34374;BME280;20637;55.770;37.592;2023-05-14T05:58:36;100392.63;;;15.35;47.88
34374;BME280;20637;55.770;37.592;2023-05-14T06:01:01;100393.59;;;15.42;47.57
34374;BME280;20637;55.770;37.592;2023-05-14T06:03:27;100398.66;;;15.53;47.59
34374;BME280;20637;55.770;37.592;2023-05-14T06:05:52;100388.38;;;15.63;47.32
34374;BME280;20637;55.770;37.592;2023-05-14T06:08:18;100389.34;;;15.70;47.08
34374;BME280;20637;55.770;37.592;2023-05-14T06:10:43;100398.63;;;15.76;47.00
34374;BME280;20637;55.770;37.592;2023-05-14T06:13:09;100395.75;;;15.78;46.80
34374;BME280;20637;55.770;37.592;2023-05-14T06:15:35;100392.63;;;15.81;46.81
34374;BME280;20637;55.770;37.592;2023-05-14T06:18:01;100393.50;;;15.81;46.51
34374;BME280;20637;55.770;37.592;2023-05-14T06:20:26;100393.66;;;15.80;46.47
34374;BME280;20637;55.770;37.592;2023-05-14T06:22:52;100392.16;;;15.77;46.44
34374;BME280;20637;55.770;37.592;2023-05-14T06:25:17;100393.75;;;15.71;45.90
34374;BME280;20637;55.770;37.592;2023-05-14T06:27:43;100392.13;;;15.62;46.10
34374;BME280;20637;55.770;37.592;2023-05-14T06:30:08;100386.69;;;15.62;46.11
34374;BME280;20637;55.770;37.592;2023-05-14T06:32:35;100394.16;;;15.60;46.07
34374;BME280;20637;55.770;37.592;2023-05-14T06:35:01;100395.00;;;15.61;45.93
34374;BME280;20637;55.770;37.592;2023-05-14T06:37:26;100394.09;;;15.68;45.81
34374;BME280;20637;55.770;37.592;2023-05-14T06:39:52;100404.28;;;15.75;45.42
34374;BME280;20637;55.770;37.592;2023-05-14T06:42:17;100399.63;;;15.83;44.50
34374;BME280;20637;55.770;37.592;2023-05-14T06:44:43;100401.41;;;15.91;44.43
34374;BME280;20637;55.770;37.592;2023-05-14T06:47:09;100394.47;;;16.03;44.16
34374;BME280;20637;55.770;37.592;2023-05-14T06:49:34;100386.69;;;16.14;43.40
34374;BME280;20637;55.770;37.592;2023-05-14T06:52:00;100383.63;;;16.17;43.45
34374;BME280;20637;55.770;37.592;2023-05-14T06:54:26;100391.88;;;16.24;43.74
34374;BME280;20637;55.770;37.592;2023-05-14T06:56:52;100385.59;;;16.38;42.67
34374;BME280;20637;55.770;37.592;2023-05-14T06:59:17;100391.63;;;16.48;43.04
34374;BME280;20637;55.770;37.592;2023-05-14T07:01:42;100394.63;;;16.53;42.56
34374;BME280;20637;55.770;37.592;2023-05-14T07:04:08;100408.06;;;16.55;41.75
34374;BME280;20637;55.770;37.592;2023-05-14T07:06:33;100404.19;;;16.49;41.84
34374;BME280;20637;55.770;37.592;2023-05-14T07:08:59;100402.16;;;16.51;41.88
34374;BME280;20637;55.770;37.592;2023-05-14T07:11:25;100407.22;;;16.54;41.98
34374;BME280;20637;55.770;37.592;2023-05-14T07:13:50;100403.88;;;16.67;42.19
34374;BME280;20637;55.770;37.592;2023-05-14T07:16:16;100407.22;;;16.84;42.06
34374;BME280;20637;55.770;37.592;2023-05-14T07:18:41;100408.25;;;16.97;42.13
34374;BME280;20637;55.770;37.592;2023-05-14T07:21:07;100398.06;;;17.06;41.71
34374;BME280;20637;55.770;37.592;2023-05-14T07:23:33;100412.44;;;17.14;41.40
34374;BME280;20637;55.770;37.592;2023-05-14T07:26:05;100413.03;;;17.10;41.65
34374;BME280;20637;55.770;37.592;2023-05-14T07:28:31;100417.63;;;17.09;41.89
34374;BME280;20637;55.770;37.592;2023-05-14T07:30:56;100417.34;;;17.04;41.21
34374;BME280;20637;55.770;37.592;2023-05-14T07:33:22;100409.09;;;16.98;41.29
34374;BME280;20637;55.770;37.592;2023-05-14T07:35:47;100412.31;;;16.87;41.16
34374;BME280;20637;55.770;37.592;2023-05-14T07:38:13;100423.97;;;16.81;41.61
34374;BME280;20637;55.770;37.592;2023-05-14T07:40:38;100420.59;;;16.79;41.59
34374;BME280;20637;55.770;37.592;2023-05-14T07:43:04;100423.97;;;16.81;41.10
34374;BME280;20637;55.770;37.592;2023-05-14T07:45:29;100428.09;;;16.77;41.08
34374;BME280;20637;55.770;37.592;2023-05-14T07:47:55;100418.44;;;16.74;40.76
34374;BME280;20637;55.770;37.592;2023-05-14T07:50:21;100429.41;;;16.81;40.72
34374;BME280;20637;55.770;37.592;2023-05-14T07:52:47;100426.19;;;16.92;40.83
34374;BME280;20637;55.770;37.592;2023-05-14T07:55:12;100416.50;;;17.04;40.62
34374;BME280;20637;55.770;37.592;2023-05-14T07:57:38;100424.66;;;17.19;40.32
34374;BME280;20637;55.770;37.592;2023-05-14T08:00:03;100422.03;;;17.25;40.42
34374;BME280;20637;55.770;37.592;2023-05-14T08:02:37;100421.34;;;17.23;40.49
34374;BME280;20637;55.770;37.592;2023-05-14T08:05:03;100421.34;;;17.23;40.61
34374;BME280;20637;55.770;37.592;2023-05-14T08:07:29;100435.66;;;17.25;40.15
34374;BME280;20637;55.770;37.592;2023-05-14T08:09:55;100426.66;;;17.10;39.83
34374;BME280;20637;55.770;37.592;2023-05-14T08:12:20;100430.34;;;17.02;40.29
34374;BME280;20637;55.770;37.592;2023-05-14T08:14:46;100431.19;;;17.03;40.17
34374;BME280;20637;55.770;37.592;2023-05-14T08:17:11;100425.63;;;16.96;40.24
34374;BME280;20637;55.770;37.592;2023-05-14T08:19:37;100439.75;;;17.00;40.05
34374;BME280;20637;55.770;37.592;2023-05-14T08:22:03;100444.00;;;17.02;39.63
34374;BME280;20637;55.770;37.592;2023-05-14T08:24:28;100432.78;;;16.97;39.64
34374;BME280;20637;55.770;37.592;2023-05-14T08:26:54;100435.13;;;17.00;39.61
34374;BME280;20637;55.770;37.592;2023-05-14T08:29:20;100431.84;;;17.05;39.95
34374;BME280;20637;55.770;37.592;2023-05-14T08:31:45;100429.97;;;17.05;40.11
34374;BME280;20637;55.770;37.592;2023-05-14T08:34:11;100430.88;;;17.12;40.17
34374;BME280;20637;55.770;37.592;2023-05-14T08:36:37;100432.47;;;17.07;39.93
34374;BME280;20637;55.770;37.592;2023-05-14T08:39:02;100430.59;;;17.07;40.02
34374;BME280;20637;55.770;37.592;2023-05-14T08:41:28;100429.66;;;17.15;40.11
34374;BME280;20637;55.770;37.592;2023-05-14T08:44:07;100427.72;;;17.30;40.03
34374;BME280;20637;55.770;37.592;2023-05-14T08:46:37;100423.09;;;17.45;40.28
34374;BME280;20637;55.770;37.592;2023-05-14T08:49:07;100425.03;;;17.51;40.02
34374;BME280;20637;55.770;37.592;2023-05-14T08:51:35;100422.13;;;17.53;39.91
34374;BME280;20637;55.770;37.592;2023-05-14T08:54:01;100433.03;;;17.53;39.46
34374;BME280;20637;55.770;37.592;2023-05-14T08:56:27;100422.75;;;17.55;39.77
34374;BME280;20637;55.770;37.592;2023-05-14T08:58:53;100425.84;;;17.67;39.77
34374;BME280;20637;55.770;37.592;2023-05-14T09:01:19;100419.59;;;17.73;39.77
34374;BME280;20637;55.770;37.592;2023-05-14T09:03:44;100424.94;;;17.81;39.80
34374;BME280;20637;55.770;37.592;2023-05-14T09:06:11;100419.78;;;17.92;39.94
34374;BME280;20637;55.770;37.592;2023-05-14T09:08:37;100414.31;;;18.14;39.88
34374;BME280;20637;55.770;37.592;2023-05-14T09:11:03;100427.88;;;18.28;39.26
34374;BME280;20637;55.770;37.592;2023-05-14T09:13:28;100416.13;;;18.34;39.01
34374;BME280;20637;55.770;37.592;2023-05-14T09:15:54;100419.84;;;18.27;39.49
34374;BME280;20637;55.770;37.592;2023-05-14T09:18:19;100430.34;;;18.23;38.16
34374;BME280;20637;55.770;37.592;2023-05-14T09:20:45;100412.59;;;18.13;38.34
34374;BME280;20637;55.770;37.592;2023-05-14T09:23:11;100412.13;;;18.02;38.66
34374;BME280;20637;55.770;37.592;2023-05-14T09:25:37;100413.09;;;17.95;38.55
34374;BME280;20637;55.770;37.592;2023-05-14T09:28:05;100409.13;;;17.97;38.63
34374;BME280;20637;55.770;37.592;2023-05-14T09:30:32;100411.34;;;18.15;38.49
34374;BME280;20637;55.770;37.592;2023-05-14T09:32:59;100414.00;;;18.30;38.81
34374;BME280;20637;55.770;37.592;2023-05-14T09:35:24;100405.69;;;18.44;38.59
34374;BME280;20637;55.770;37.592;2023-05-14T09:37:53;100409.72;;;18.48;38.47
34374;BME280;20637;55.770;37.592;2023-05-14T09:40:19;100412.25;;;18.50;37.77
34374;BME280;20637;55.770;37.592;2023-05-14T09:42:45;100408.63;;;18.43;37.44
34374;BME280;20637;55.770;37.592;2023-05-14T09:45:12;100410.03;;;18.32;37.86
34374;BME280;20637;55.770;37.592;2023-05-14T09:47:40;100412.06;;;18.24;37.90
34374;BME280;20637;55.770;37.592;2023-05-14T09:50:06;100407.63;;;18.23;37.96
34374;BME280;20637;55.770;37.592;2023-05-14T09:52:31;100409.59;;;18.29;38.09
34374;BME280;20637;55.770;37.592;2023-05-14T09:54:57;100406.84;;;18.29;37.57
34374;BME280;20637;55.770;37.592;2023-05-14T09:57:23;100400.97;;;18.32;38.13
34374;BME280;20637;55.770;37.592;2023-05-14T09:59:51;100408.44;;;18.44;37.58
34374;BME280;20637;55.770;37.592;2023-05-14T10:04:45;100408.00;;;18.41;37.47
34374;BME280;20637;55.770;37.592;2023-05-14T10:07:10;100398.00;;;18.27;37.98
34374;BME280;20637;55.770;37.592;2023-05-14T10:09:37;100401.13;;;18.24;38.02
34374;BME280;20637;55.770;37.592;2023-05-14T10:12:05;100404.31;;;18.27;37.79
34374;BME280;20637;55.770;37.592;2023-05-14T10:14:37;100389.59;;;18.28;37.77
34374;BME280;20637;55.770;37.592;2023-05-14T10:17:03;100396.81;;;18.36;38.03
34374;BME280;20637;55.770;37.592;2023-05-14T10:19:31;100390.94;;;18.39;37.85
34374;BME280;20637;55.770;37.592;2023-05-14T10:22:02;100399.72;;;18.34;37.86
34374;BME280;20637;55.770;37.592;2023-05-14T10:24:28;100395.53;;;18.38;37.97
34374;BME280;20637;55.770;37.592;2023-05-14T10:26:54;100388.13;;;18.53;37.47
34374;BME280;20637;55.770;37.592;2023-05-14T10:29:20;100396.19;;;18.68;37.33
34374;BME280;20637;55.770;37.592;2023-05-14T10:31:55;100392.03;;;18.72;37.17
34374;BME280;20637;55.770;37.592;2023-05-14T10:34:30;100393.69;;;18.73;37.08
34374;BME280;20637;55.770;37.592;2023-05-14T10:37:00;100389.19;;;18.59;36.72
34374;BME280;20637;55.770;37.592;2023-05-14T10:39:38;100390.94;;;18.39;37.44
34374;BME280;20637;55.770;37.592;2023-05-14T10:42:04;100391.75;;;18.33;37.21
34374;BME280;20637;55.770;37.592;2023-05-14T10:44:30;100396.19;;;18.34;37.57
34374;BME280;20637;55.770;37.592;2023-05-14T10:46:57;100400.78;;;18.33;37.71
34374;BME280;20637;55.770;37.592;2023-05-14T10:49:23;100397.63;;;18.30;37.23
34374;BME280;20637;55.770;37.592;2023-05-14T10:51:48;100403.09;;;18.30;37.42
34374;BME280;20637;55.770;37.592;2023-05-14T10:54:17;100393.19;;;18.29;37.36
34374;BME280;20637;55.770;37.592;2023-05-14T10:56:44;100393.81;;;18.31;37.19
34374;BME280;20637;55.770;37.592;2023-05-14T10:59:09;100394.72;;;18.38;37.50
34374;BME280;20637;55.770;37.592;2023-05-14T11:01:36;100398.25;;;18.32;37.30
34374;BME280;20637;55.770;37.592;2023-05-14T11:04:04;100392.63;;;18.12;37.65
34374;BME280;20637;55.770;37.592;2023-05-14T11:06:30;100394.66;;;18.03;37.67
34374;BME280;20637;55.770;37.592;2023-05-14T11:08:55;100402.22;;;18.01;38.06
34374;BME280;20637;55.770;37.592;2023-05-14T11:11:21;100402.84;;;18.03;37.88
34374;BME280;20637;55.770;37.592;2023-05-14T11:13:49;100399.94;;;18.05;37.79
34374;BME280;20637;55.770;37.592;2023-05-14T11:16:14;100397.78;;;18.00;38.20
34374;BME280;20637;55.770;37.592;2023-05-14T11:18:43;100398.78;;;17.93;38.30
34374;BME280;20637;55.770;37.592;2023-05-14T11:21:08;100400.56;;;17.79;38.36
34374;BME280;20637;55.770;37.592;2023-05-14T11:23:33;100391.47;;;17.72;38.54
34374;BME280;20637;55.770;37.592;2023-05-14T11:25:59;100398.69;;;17.80;38.21
34374;BME280;20637;55.770;37.592;2023-05-14T11:28:25;100396.59;;;17.82;38.06
34374;BME280;20637;55.770;37.592;2023-05-14T11:30:51;100395.66;;;17.96;37.84
34374;BME280;20637;55.770;37.592;2023-05-14T11:33:17;100389.84;;;18.05;37.62
34374;BME280;20637;55.770;37.592;2023-05-14T11:35:43;100397.88;;;18.07;37.24
34374;BME280;20637;55.770;37.592;2023-05-14T11:38:13;100385.69;;;18.09;37.64
34374;BME280;20637;55.770;37.592;2023-05-14T11:40:39;100394.19;;;18.21;37.55
34374;BME280;20637;55.770;37.592;2023-05-14T11:43:04;100387.06;;;18.27;37.59
34374;BME280;20637;55.770;37.592;2023-05-14T11:45:30;100392.59;;;18.33;37.49
34374;BME280;20637;55.770;37.592;2023-05-14T11:47:57;100390.91;;;18.32;37.25
34374;BME280;20637;55.770;37.592;2023-05-14T11:50:22;100378.81;;;18.20;37.40
34374;BME280;20637;55.770;37.592;2023-05-14T11:52:48;100384.25;;;18.14;37.53
34374;BME280;20637;55.770;37.592;2023-05-14T11:55:15;100382.38;;;18.14;37.51
34374;BME280;20637;55.770;37.592;2023-05-14T11:57:41;100383.25;;;18.21;37.60
34374;BME280;20637;55.770;37.592;2023-05-14T12:00:08;100385.59;;;18.24;37.55
34374;BME280;20637;55.770;37.592;2023-05-14T12:02:37;100386.38;;;18.18;37.52
34374;BME280;20637;55.770;37.592;2023-05-14T12:05:03;100391.41;;;18.15;37.59
34374;BME280;20637;55.770;37.592;2023-05-14T12:07:31;100391.19;;;18.16;37.72
34374;BME280;20637;55.770;37.592;2023-05-14T12:09:59;100374.84;;;18.23;37.63
34374;BME280;20637;55.770;37.592;2023-05-14T12:12:24;100383.13;;;18.36;37.57
34374;BME280;20637;55.770;37.592;2023-05-14T12:14:50;100385.13;;;18.48;37.69
34374;BME280;20637;55.770;37.592;2023-05-14T12:17:17;100372.94;;;18.51;37.68
34374;BME280;20637;55.770;37.592;2023-05-14T12:19:45;100376.34;;;18.53;37.70
34374;BME280;20637;55.770;37.592;2023-05-14T12:22:10;100377.81;;;18.55;37.28
34374;BME280;20637;55.770;37.592;2023-05-14T12:24:36;100384.78;;;18.58;37.48
34374;BME280;20637;55.770;37.592;2023-05-14T12:27:03;100367.97;;;18.61;37.52
34374;BME280;20637;55.770;37.592;2023-05-14T12:29:29;100378.94;;;18.68;37.80
34374;BME280;20637;55.770;37.592;2023-05-14T12:31:55;100375.78;;;18.64;37.81
34374;BME280;20637;55.770;37.592;2023-05-14T12:34:21;100375.38;;;18.67;37.78
34374;BME280;20637;55.770;37.592;2023-05-14T12:36:46;100389.38;;;18.58;37.69
34374;BME280;20637;55.770;37.592;2023-05-14T12:39:12;100380.69;;;18.47;37.93
34374;BME280;20637;55.770;37.592;2023-05-14T12:41:37;100373.31;;;18.41;37.74